createdAt,value
2018-04-24T00:00:27.845Z,5.3
2018-04-24T00:01:30.286Z,5.3
2018-04-24T00:02:32.722Z,5.3
2018-04-24T00:03:35.168Z,5.3
2018-04-24T00:04:37.610Z,5.3
2018-04-24T00:05:40.031Z,5.3
2018-04-24T00:06:42.484Z,5.2
2018-04-24T00:07:44.925Z,5.3
2018-04-24T00:08:47.356Z,5.2
2018-04-24T00:09:49.825Z,5.3
2018-04-24T00:10:52.237Z,5.3
2018-04-24T00:11:54.973Z,5.5
2018-04-24T00:12:58.033Z,5.3
2018-04-24T00:14:00.464Z,5.3
2018-04-24T00:15:03.186Z,5.3
2018-04-24T00:16:05.918Z,5.3
2018-04-24T00:17:08.340Z,5.3
2018-04-24T00:18:11.108Z,5.3
2018-04-24T00:19:13.507Z,5.3
2018-04-24T00:20:16.229Z,5.3
2018-04-24T00:21:18.653Z,5.3
2018-04-24T00:22:21.102Z,5.3
2018-04-24T00:23:23.531Z,5.3
2018-04-24T00:24:26.263Z,5.3
2018-04-24T00:25:28.699Z,5.3
2018-04-24T00:26:31.145Z,5.3
2018-04-24T00:27:33.575Z,5.4
2018-04-24T00:28:36.017Z,5.4
2018-04-24T00:29:38.465Z,5.3
2018-04-24T00:30:40.890Z,5.3
2018-04-24T00:31:43.322Z,5.4
2018-04-24T00:32:45.770Z,5.3
2018-04-24T00:33:48.601Z,5.5
2018-04-24T00:34:51.034Z,5.4
2018-04-24T00:35:53.477Z,5.4
2018-04-24T00:36:55.915Z,5.3
2018-04-24T00:37:58.727Z,5.4
2018-04-24T00:39:01.174Z,5.3
2018-04-24T00:40:03.603Z,5.4
2018-04-24T00:41:06.417Z,5.4
2018-04-24T00:42:09.821Z,5.4
2018-04-24T00:43:12.543Z,5.4
2018-04-24T00:44:14.991Z,5.3
2018-04-24T00:45:17.426Z,5.4
2018-04-24T00:46:20.125Z,5.4
2018-04-24T00:47:23.258Z,5.4
2018-04-24T00:48:25.987Z,5.4
2018-04-24T00:49:28.807Z,6
2018-04-24T00:50:31.249Z,5.4
2018-04-24T00:51:33.701Z,5.3
2018-04-24T00:52:36.129Z,5.3
2018-04-24T00:53:38.578Z,5.3
2018-04-24T00:54:41.298Z,5.3
2018-04-24T00:55:43.722Z,5.3
2018-04-24T00:56:46.468Z,5.4
2018-04-24T00:57:49.196Z,5.4
2018-04-24T00:58:51.627Z,5.3
2018-04-24T00:59:54.055Z,5.2
2018-04-24T01:00:56.780Z,5.3
2018-04-24T01:01:59.507Z,5.3
2018-04-24T01:03:01.935Z,5.3
2018-04-24T01:04:04.953Z,5.2
2018-04-24T01:05:07.667Z,5.2
2018-04-24T01:06:10.111Z,5.2
2018-04-24T01:07:12.540Z,5.2
2018-04-24T01:08:14.975Z,5.3
2018-04-24T01:09:17.404Z,5.3
2018-04-24T01:10:20.510Z,5.4
2018-04-24T01:11:23.236Z,5.3
2018-04-24T01:12:25.673Z,5.4
2018-04-24T01:13:28.101Z,5.3
2018-04-24T01:14:31.101Z,5.4
2018-04-24T01:15:33.832Z,5.4
2018-04-24T01:16:36.274Z,5.3
2018-04-24T01:17:38.702Z,5.3
2018-04-24T01:18:41.430Z,5.3
2018-04-24T01:19:43.862Z,5.2
2018-04-24T01:20:46.311Z,5.4
2018-04-24T01:21:48.737Z,5.4
2018-04-24T01:22:51.469Z,5.3
2018-04-24T01:23:53.894Z,5.4
2018-04-24T01:24:56.326Z,5.4
2018-04-24T01:25:58.755Z,5.3
2018-04-24T01:27:01.494Z,5.3
2018-04-24T01:28:03.918Z,5.2
2018-04-24T01:29:06.625Z,5.2
2018-04-24T01:30:09.072Z,5.3
2018-04-24T01:31:11.498Z,5.3
2018-04-24T01:32:13.932Z,5.3
2018-04-24T01:33:16.365Z,5.3
2018-04-24T01:34:19.078Z,5.3
2018-04-24T01:35:21.513Z,5.4
2018-04-24T01:36:23.954Z,5.2
2018-04-24T01:37:26.378Z,5.2
2018-04-24T01:38:28.818Z,5.4
2018-04-24T01:39:31.256Z,5.3
2018-04-24T01:40:33.695Z,5.4
2018-04-24T01:41:36.131Z,5.4
2018-04-24T01:42:38.560Z,5.3
2018-04-24T01:43:40.998Z,5.3
2018-04-24T01:44:43.430Z,5.3
2018-04-24T01:45:45.867Z,5.3
2018-04-24T01:46:48.309Z,5.3
2018-04-24T01:47:50.739Z,5.4
2018-04-24T01:48:53.470Z,5.3
2018-04-24T01:49:56.195Z,5.3
2018-04-24T01:50:58.624Z,5.3
2018-04-24T01:52:01.354Z,5.4
2018-04-24T01:53:04.061Z,5.3
2018-04-24T01:54:06.773Z,5.2
2018-04-24T01:55:09.224Z,5.4
2018-04-24T01:56:11.647Z,5.2
2018-04-24T01:57:14.086Z,5.3
2018-04-24T01:58:16.530Z,5.3
2018-04-24T01:59:18.968Z,5.3
2018-04-24T02:00:21.772Z,5.3
2018-04-24T02:01:24.216Z,5.3
2018-04-24T02:02:26.652Z,5.3
2018-04-24T02:03:29.081Z,5.2
2018-04-24T02:04:31.520Z,5.3
2018-04-24T02:05:34.234Z,5.4
2018-04-24T02:06:37.035Z,5.3
2018-04-24T02:07:39.473Z,5.5
2018-04-24T02:08:41.897Z,5.4
2018-04-24T02:09:44.332Z,5.2
2018-04-24T02:10:46.770Z,5.2
2018-04-24T02:11:49.486Z,5.3
2018-04-24T02:12:52.597Z,5.2
2018-04-24T02:13:55.039Z,5.3
2018-04-24T02:14:57.477Z,5.2
2018-04-24T02:15:59.912Z,5.3
2018-04-24T02:17:02.345Z,5.3
2018-04-24T02:18:05.061Z,5.4
2018-04-24T02:19:08.097Z,5.3
2018-04-24T02:20:10.519Z,5.3
2018-04-24T02:21:13.815Z,5.4
2018-04-24T02:22:16.548Z,5.5
2018-04-24T02:23:18.977Z,5.3
2018-04-24T02:24:21.421Z,5.3
2018-04-24T02:25:23.848Z,5.3
2018-04-24T02:26:26.577Z,5.2
2018-04-24T02:27:29.013Z,5.3
2018-04-24T02:28:31.820Z,5.2
2018-04-24T02:29:34.261Z,5.4
2018-04-24T02:30:36.691Z,5.4
2018-04-24T02:31:39.598Z,5.4
2018-04-24T02:32:42.330Z,5.3
2018-04-24T02:33:45.147Z,5.4
2018-04-24T02:34:47.569Z,5.4
2018-04-24T02:35:50.018Z,5.4
2018-04-24T02:36:52.456Z,5.3
2018-04-24T02:37:55.500Z,5.2
2018-04-24T02:38:57.938Z,5.2
2018-04-24T02:41:03.419Z,5.2
2018-04-24T02:42:05.860Z,5.2
2018-04-24T02:43:08.282Z,5.2
2018-04-24T02:44:11.316Z,5.3
2018-04-24T02:45:14.436Z,5.3
2018-04-24T02:46:17.157Z,5.3
2018-04-24T02:47:19.868Z,5.3
2018-04-24T02:48:22.301Z,5.3
2018-04-24T02:49:24.728Z,5.3
2018-04-24T02:50:27.496Z,5.4
2018-04-24T02:51:30.524Z,5.3
2018-04-24T02:52:32.947Z,5.3
2018-04-24T02:53:36.374Z,5.3
2018-04-24T02:54:39.781Z,5.3
2018-04-24T02:55:42.609Z,5.4
2018-04-24T02:56:45.350Z,5.3
2018-04-24T02:57:48.064Z,5.3
2018-04-24T02:58:50.799Z,5.4
2018-04-24T02:59:53.215Z,5.3
2018-04-24T03:00:55.658Z,5.3
2018-04-24T03:01:58.496Z,5.3
2018-04-24T03:03:01.210Z,5.3
2018-04-24T03:04:04.239Z,5.4
2018-04-24T03:05:06.956Z,5.4
2018-04-24T03:06:09.390Z,5.3
2018-04-24T03:07:11.833Z,5.3
2018-04-24T03:08:14.860Z,5.4
2018-04-24T03:09:17.564Z,5.3
2018-04-24T03:10:20.012Z,5.3
2018-04-24T03:11:22.445Z,5.2
2018-04-24T03:12:25.173Z,5.5
2018-04-24T03:13:27.614Z,5.4
2018-04-24T03:14:30.625Z,5.4
2018-04-24T03:15:33.059Z,5.3
2018-04-24T03:16:35.495Z,5.3
2018-04-24T03:17:37.909Z,5.3
2018-04-24T03:18:40.354Z,5.3
2018-04-24T03:19:43.058Z,5.2
2018-04-24T03:20:45.782Z,5.3
2018-04-24T03:21:48.500Z,5.3
2018-04-24T03:22:50.937Z,5.3
2018-04-24T03:23:53.375Z,5.4
2018-04-24T03:24:56.099Z,5.3
2018-04-24T03:25:58.521Z,5.3
2018-04-24T03:27:00.960Z,5.5
2018-04-24T03:28:03.400Z,5.3
2018-04-24T03:29:05.828Z,5.4
2018-04-24T03:30:09.225Z,5.3
2018-04-24T03:31:12.061Z,5.3
2018-04-24T03:32:14.483Z,5.2
2018-04-24T03:33:17.242Z,5.3
2018-04-24T03:34:19.669Z,5.3
2018-04-24T03:35:22.099Z,5.2
2018-04-24T03:36:24.535Z,5.3
2018-04-24T03:37:27.247Z,5.4
2018-04-24T03:38:29.679Z,5.3
2018-04-24T03:39:32.103Z,5.3
2018-04-24T03:40:34.537Z,5.3
2018-04-24T03:41:37.252Z,5.4
2018-04-24T03:42:39.698Z,5.3
2018-04-24T03:43:42.131Z,5.2
2018-04-24T03:44:44.556Z,5.4
2018-04-24T03:45:47.280Z,5.3
2018-04-24T03:46:49.997Z,5.4
2018-04-24T03:47:52.727Z,5.4
2018-04-24T03:48:55.166Z,5.4
2018-04-24T03:49:57.597Z,5.5
2018-04-24T03:51:00.038Z,5.3
2018-04-24T03:52:03.173Z,5.3
2018-04-24T03:53:06.194Z,5.4
2018-04-24T03:54:08.918Z,5.3
2018-04-24T03:55:11.349Z,5.3
2018-04-24T03:56:14.075Z,5.3
2018-04-24T03:57:16.948Z,5.3
2018-04-24T03:58:19.346Z,5.4
2018-04-24T03:59:21.779Z,5.4
2018-04-24T04:00:24.217Z,5.3
2018-04-24T04:01:26.651Z,5.4
2018-04-24T04:02:29.101Z,5.2
2018-04-24T04:03:31.839Z,5.4
2018-04-24T04:04:34.280Z,5.4
2018-04-24T04:05:36.715Z,5.3
2018-04-24T04:06:39.722Z,5.3
2018-04-24T04:07:42.454Z,5.3
2018-04-24T04:08:45.177Z,5.4
2018-04-24T04:09:47.892Z,5.5
2018-04-24T04:10:50.330Z,5.5
2018-04-24T04:11:53.069Z,5.5
2018-04-24T04:12:55.500Z,5.4
2018-04-24T04:13:57.929Z,5.4
2018-04-24T04:15:00.360Z,5.3
2018-04-24T04:16:03.355Z,5.4
2018-04-24T04:17:06.158Z,5.3
2018-04-24T04:18:08.576Z,5.3
2018-04-24T04:19:11.020Z,5.4
2018-04-24T04:20:13.766Z,5.4
2018-04-24T04:21:16.199Z,5.4
2018-04-24T04:22:18.930Z,5.4
2018-04-24T04:23:21.953Z,5.5
2018-04-24T04:24:24.681Z,5.4
2018-04-24T04:25:27.412Z,5.4
2018-04-24T04:26:29.840Z,5.4
2018-04-24T04:27:32.557Z,5.3
2018-04-24T04:28:34.993Z,5.4
2018-04-24T04:29:37.421Z,5.5
2018-04-24T04:30:39.869Z,5.3
2018-04-24T04:31:42.298Z,5.3
2018-04-24T04:32:44.734Z,5.3
2018-04-24T04:33:47.160Z,5.3
2018-04-24T04:34:49.597Z,5.5
2018-04-24T04:35:52.023Z,5.4
2018-04-24T04:36:54.464Z,5.3
2018-04-24T04:37:57.177Z,5.3
2018-04-24T04:38:59.901Z,5.3
2018-04-24T04:40:02.329Z,5.3
2018-04-24T04:41:04.761Z,5.4
2018-04-24T04:42:07.198Z,5.4
2018-04-24T04:43:09.921Z,5.3
2018-04-24T04:44:12.350Z,5.4
2018-04-24T04:45:14.790Z,5.4
2018-04-24T04:46:17.246Z,5.4
2018-04-24T04:47:19.683Z,5.3
2018-04-24T04:48:22.120Z,5.3
2018-04-24T04:49:24.851Z,5.3
2018-04-24T04:50:27.274Z,5.5
2018-04-24T04:51:29.720Z,5.4
2018-04-24T04:52:32.149Z,5.4
2018-04-24T04:53:34.582Z,5.3
2018-04-24T04:54:37.019Z,5.3
2018-04-24T04:55:39.454Z,5.4
2018-04-24T04:56:42.175Z,5.3
2018-04-24T04:57:44.931Z,5.4
2018-04-24T04:58:47.751Z,5.3
2018-04-24T04:59:50.194Z,5.4
2018-04-24T05:00:52.624Z,5.4
2018-04-24T05:01:55.060Z,5.5
2018-04-24T05:02:57.480Z,5.3
2018-04-24T05:04:00.208Z,5.4
2018-04-24T05:05:02.641Z,5.4
2018-04-24T05:06:05.067Z,5.4
2018-04-24T05:07:07.516Z,5.4
2018-04-24T05:08:09.954Z,5.4
2018-04-24T05:09:12.675Z,5.5
2018-04-24T05:10:15.110Z,5.3
2018-04-24T05:11:17.938Z,5.4
2018-04-24T05:12:20.370Z,5.5
2018-04-24T05:13:23.103Z,5.5
2018-04-24T05:14:25.547Z,5.3
2018-04-24T05:15:27.961Z,5.3
2018-04-24T05:16:30.408Z,5.3
2018-04-24T05:17:32.835Z,5.5
2018-04-24T05:18:35.664Z,5.4
2018-04-24T05:19:38.398Z,5.5
2018-04-24T05:20:40.831Z,5.4
2018-04-24T05:21:43.552Z,5.5
2018-04-24T05:22:46.001Z,5.4
2018-04-24T05:23:48.434Z,5.5
2018-04-24T05:24:50.861Z,5.4
2018-04-24T05:25:53.300Z,5.4
2018-04-24T05:26:55.740Z,5.4
2018-04-24T05:27:58.171Z,5.5
2018-04-24T05:29:00.601Z,5.4
2018-04-24T05:30:03.046Z,5.4
2018-04-24T05:31:05.472Z,5.5
2018-04-24T05:32:07.921Z,5.4
2018-04-24T05:33:10.741Z,5.5
2018-04-24T05:34:13.472Z,5.4
2018-04-24T05:35:16.221Z,5.5
2018-04-24T05:36:18.662Z,5.3
2018-04-24T05:37:21.101Z,5.5
2018-04-24T05:38:23.543Z,5.5
2018-04-24T05:39:25.964Z,5.5
2018-04-24T05:40:28.409Z,5.4
2018-04-24T05:41:30.846Z,5.4
2018-04-24T05:42:33.288Z,5.4
2018-04-24T05:43:35.717Z,5.5
2018-04-24T05:44:38.161Z,5.5
2018-04-24T05:45:40.590Z,5.4
2018-04-24T05:46:43.920Z,5.4
2018-04-24T05:47:46.343Z,5.5
2018-04-24T05:48:48.786Z,5.5
2018-04-24T05:49:51.218Z,5.4
2018-04-24T05:50:53.666Z,5.5
2018-04-24T05:51:56.097Z,5.4
2018-04-24T05:52:58.596Z,5.4
2018-04-24T05:54:01.359Z,5.6
2018-04-24T05:55:04.093Z,5.6
2018-04-24T05:56:06.804Z,5.6
2018-04-24T05:57:09.234Z,5.5
2018-04-24T05:58:11.686Z,5.5
2018-04-24T05:59:14.509Z,5.4
2018-04-24T06:00:16.930Z,5.4
2018-04-24T06:01:19.367Z,5.4
2018-04-24T06:02:22.106Z,5.4
2018-04-24T06:03:24.547Z,5.5
2018-04-24T06:04:26.991Z,5.6
2018-04-24T06:05:29.414Z,5.5
2018-04-24T06:06:31.855Z,5.5
2018-04-24T06:07:34.612Z,5.5
2018-04-24T06:08:37.066Z,5.5
2018-04-24T06:09:39.497Z,5.4
2018-04-24T06:10:41.926Z,5.5
2018-04-24T06:11:44.368Z,5.7
2018-04-24T06:12:46.824Z,5.5
2018-04-24T06:13:49.632Z,5.6
2018-04-24T06:14:52.068Z,5.5
2018-04-24T06:15:54.497Z,5.4
2018-04-24T06:16:57.152Z,5.4
2018-04-24T06:17:59.592Z,5.5
2018-04-24T06:19:02.332Z,5.5
2018-04-24T06:20:04.761Z,5.6
2018-04-24T06:21:07.202Z,5.5
2018-04-24T06:22:09.645Z,5.5
2018-04-24T06:23:12.660Z,5.5
2018-04-24T06:24:15.384Z,5.6
2018-04-24T06:25:17.814Z,5.4
2018-04-24T06:26:20.537Z,5.5
2018-04-24T06:27:22.975Z,5.6
2018-04-24T06:28:25.460Z,5.4
2018-04-24T06:29:27.844Z,5.4
2018-04-24T06:30:30.664Z,5.5
2018-04-24T06:31:33.112Z,5.6
2018-04-24T06:32:35.840Z,5.6
2018-04-24T06:33:38.668Z,5.4
2018-04-24T06:34:41.102Z,5.5
2018-04-24T06:35:43.548Z,5.5
2018-04-24T06:36:46.575Z,5.5
2018-04-24T06:37:49.016Z,5.5
2018-04-24T06:38:51.459Z,5.5
2018-04-24T06:39:53.894Z,5.6
2018-04-24T06:40:56.325Z,5.6
2018-04-24T06:41:58.785Z,5.7
2018-04-24T06:43:01.247Z,5.5
2018-04-24T06:44:04.553Z,5.5
2018-04-24T06:45:06.981Z,5.5
2018-04-24T06:46:09.431Z,5.6
2018-04-24T06:47:12.151Z,5.6
2018-04-24T06:48:14.599Z,5.5
2018-04-24T06:49:17.324Z,5.5
2018-04-24T06:50:20.054Z,5.5
2018-04-24T06:51:22.487Z,5.6
2018-04-24T06:52:24.933Z,5.8
2018-04-24T06:53:27.370Z,5.6
2018-04-24T06:54:29.913Z,5.7
2018-04-24T06:55:33.465Z,5.6
2018-04-24T06:56:36.202Z,5.6
2018-04-24T06:57:38.643Z,5.5
2018-04-24T06:58:41.085Z,5.6
2018-04-24T06:59:43.627Z,5.5
2018-04-24T07:00:46.091Z,5.6
2018-04-24T07:01:48.543Z,5.6
2018-04-24T07:02:50.985Z,5.7
2018-04-24T07:03:53.425Z,5.7
2018-04-24T07:04:56.282Z,5.6
2018-04-24T07:05:58.788Z,5.5
2018-04-24T07:07:01.251Z,5.5
2018-04-24T07:08:03.687Z,5.6
2018-04-24T07:09:06.418Z,5.5
2018-04-24T07:10:08.960Z,5.5
2018-04-24T07:11:11.484Z,5.6
2018-04-24T07:12:13.927Z,5.6
2018-04-24T07:13:16.684Z,5.6
2018-04-24T07:14:19.147Z,5.7
2018-04-24T07:15:21.594Z,5.7
2018-04-24T07:16:24.207Z,5.6
2018-04-24T07:17:26.711Z,5.7
2018-04-24T07:18:29.142Z,5.6
2018-04-24T07:19:32.262Z,5.6
2018-04-24T07:20:34.697Z,5.8
2018-04-24T07:21:37.423Z,5.7
2018-04-24T07:22:40.163Z,5.7
2018-04-24T07:23:42.889Z,5.7
2018-04-24T07:24:45.609Z,5.7
2018-04-24T07:25:48.061Z,5.7
2018-04-24T07:26:50.496Z,5.6
2018-04-24T07:27:52.931Z,5.7
2018-04-24T07:28:55.684Z,5.6
2018-04-24T07:29:58.124Z,5.7
2018-04-24T07:31:00.575Z,5.7
2018-04-24T07:32:03.399Z,5.6
2018-04-24T07:33:05.850Z,5.6
2018-04-24T07:34:08.663Z,5.5
2018-04-24T07:35:11.400Z,5.8
2018-04-24T07:36:13.837Z,5.5
2018-04-24T07:37:16.282Z,5.7
2018-04-24T07:38:19.020Z,5.6
2018-04-24T07:39:21.474Z,5.5
2018-04-24T07:40:23.917Z,5.6
2018-04-24T07:41:26.361Z,5.8
2018-04-24T07:42:28.801Z,5.7
2018-04-24T07:43:31.249Z,5.7
2018-04-24T07:44:34.064Z,5.5
2018-04-24T07:45:36.505Z,5.6
2018-04-24T07:46:39.472Z,5.7
2018-04-24T07:47:41.808Z,5.6
2018-04-24T07:48:44.641Z,5.6
2018-04-24T07:49:47.085Z,5.6
2018-04-24T07:50:49.513Z,5.8
2018-04-24T07:51:52.246Z,5.8
2018-04-24T07:52:54.688Z,5.6
2018-04-24T07:53:57.420Z,5.7
2018-04-24T07:54:59.849Z,5.7
2018-04-24T07:56:02.589Z,5.6
2018-04-24T07:57:05.020Z,5.6
2018-04-24T07:58:07.775Z,5.6
2018-04-24T07:59:10.486Z,5.8
2018-04-24T08:00:12.934Z,5.7
2018-04-24T08:01:15.678Z,5.9
2018-04-24T08:02:18.134Z,5.6
2018-04-24T08:03:20.555Z,5.7
2018-04-24T08:04:22.990Z,5.7
2018-04-24T08:05:25.721Z,5.6
2018-04-24T08:06:28.154Z,5.7
2018-04-24T08:07:30.903Z,5.6
2018-04-24T08:08:33.348Z,5.7
2018-04-24T08:09:35.777Z,5.8
2018-04-24T08:10:38.225Z,5.6
2018-04-24T08:11:40.950Z,5.6
2018-04-24T08:12:43.689Z,5.6
2018-04-24T08:13:46.121Z,5.6
2018-04-24T08:14:48.566Z,5.6
2018-04-24T08:15:50.995Z,5.6
2018-04-24T08:16:53.439Z,5.6
2018-04-24T08:17:55.876Z,5.6
2018-04-24T08:18:58.592Z,5.6
2018-04-24T08:20:01.422Z,5.6
2018-04-24T08:21:03.856Z,5.7
2018-04-24T08:22:06.600Z,5.7
2018-04-24T08:23:09.027Z,5.7
2018-04-24T08:24:11.465Z,5.6
2018-04-24T08:25:13.905Z,5.7
2018-04-24T08:26:16.331Z,5.7
2018-04-24T08:27:18.784Z,5.7
2018-04-24T08:28:21.214Z,5.7
2018-04-24T08:29:23.660Z,5.6
2018-04-24T08:30:26.104Z,5.7
2018-04-24T08:31:28.536Z,5.6
2018-04-24T08:32:30.966Z,5.6
2018-04-24T08:33:33.430Z,5.7
2018-04-24T08:34:35.843Z,5.6
2018-04-24T08:35:38.573Z,5.6
2018-04-24T08:36:41.702Z,5.6
2018-04-24T08:37:44.416Z,5.6
2018-04-24T08:38:46.856Z,5.8
2018-04-24T08:39:49.302Z,5.6
2018-04-24T08:40:52.012Z,5.6
2018-04-24T08:41:54.452Z,5.8
2018-04-24T08:42:57.207Z,5.7
2018-04-24T08:44:00.029Z,5.8
2018-04-24T08:45:02.756Z,5.7
2018-04-24T08:46:05.199Z,5.6
2018-04-24T08:47:07.630Z,5.7
2018-04-24T08:48:10.369Z,5.7
2018-04-24T08:49:12.805Z,5.6
2018-04-24T08:50:15.242Z,5.6
2018-04-24T08:51:17.961Z,5.5
2018-04-24T08:52:20.409Z,5.6
2018-04-24T08:53:23.513Z,5.6
2018-04-24T08:54:26.249Z,5.8
2018-04-24T08:55:28.687Z,5.6
2018-04-24T08:56:32.034Z,5.6
2018-04-24T08:57:34.764Z,5.7
2018-04-24T08:58:37.206Z,5.7
2018-04-24T08:59:39.631Z,5.7
2018-04-24T09:00:42.065Z,5.6
2018-04-24T09:01:44.511Z,5.6
2018-04-24T09:02:46.946Z,5.5
2018-04-24T09:03:49.667Z,5.5
2018-04-24T09:04:52.738Z,5.7
2018-04-24T09:05:55.187Z,5.7
2018-04-24T09:06:58.028Z,5.7
2018-04-24T09:08:00.864Z,5.7
2018-04-24T09:09:03.298Z,5.7
2018-04-24T09:10:05.752Z,5.7
2018-04-24T09:11:09.020Z,5.7
2018-04-24T09:12:11.485Z,5.7
2018-04-24T09:13:14.236Z,5.7
2018-04-24T09:14:17.029Z,5.7
2018-04-24T09:15:19.473Z,5.6
2018-04-24T09:16:22.526Z,5.6
2018-04-24T09:17:25.939Z,5.7
2018-04-24T09:18:28.382Z,5.8
2018-04-24T09:19:31.481Z,5.6
2018-04-24T09:20:34.008Z,5.6
2018-04-24T09:21:36.913Z,5.6
2018-04-24T09:22:39.491Z,5.7
2018-04-24T09:23:42.088Z,5.7
2018-04-24T09:24:44.605Z,5.7
2018-04-24T09:25:47.508Z,5.7
2018-04-24T09:26:50.190Z,5.6
2018-04-24T09:27:52.659Z,5.7
2018-04-24T09:28:56.495Z,5.6
2018-04-24T09:29:58.945Z,5.7
2018-04-24T09:31:03.396Z,5.8
2018-04-24T09:32:05.832Z,5.7
2018-04-24T09:33:08.282Z,5.7
2018-04-24T09:34:10.716Z,5.8
2018-04-24T09:35:13.143Z,5.7
2018-04-24T09:36:15.603Z,5.6
2018-04-24T09:37:18.328Z,5.7
2018-04-24T09:38:20.761Z,5.6
2018-04-24T09:39:23.211Z,5.8
2018-04-24T09:40:25.634Z,5.5
2018-04-24T09:41:28.080Z,5.6
2018-04-24T09:42:30.523Z,5.7
2018-04-24T09:43:32.952Z,5.6
2018-04-24T09:44:35.432Z,5.7
2018-04-24T09:45:37.870Z,5.5
2018-04-24T09:46:40.306Z,5.6
2018-04-24T09:47:42.757Z,5.6
2018-04-24T09:48:45.199Z,5.7
2018-04-24T09:49:48.013Z,5.6
2018-04-24T09:50:50.461Z,5.6
2018-04-24T09:51:52.898Z,5.7
2018-04-24T09:52:55.326Z,5.6
2018-04-24T09:53:58.048Z,5.6
2018-04-24T09:55:00.490Z,5.6
2018-04-24T09:56:03.224Z,5.7
2018-04-24T09:57:05.943Z,5.7
2018-04-24T09:58:08.393Z,5.6
2018-04-24T09:59:10.828Z,5.6
2018-04-24T10:00:13.568Z,5.7
2018-04-24T10:01:16.011Z,5.6
2018-04-24T10:02:18.971Z,5.6
2018-04-24T10:03:21.702Z,5.5
2018-04-24T10:04:24.142Z,5.6
2018-04-24T10:05:26.864Z,5.7
2018-04-24T10:06:29.592Z,5.7
2018-04-24T10:07:32.415Z,5.6
2018-04-24T10:08:34.852Z,5.7
2018-04-24T10:09:37.316Z,5.7
2018-04-24T10:10:39.759Z,5.6
2018-04-24T10:11:42.191Z,5.6
2018-04-24T10:12:44.624Z,5.8
2018-04-24T10:13:47.423Z,5.6
2018-04-24T10:14:50.266Z,5.5
2018-04-24T10:15:53.098Z,5.7
2018-04-24T10:16:55.541Z,5.6
2018-04-24T10:17:58.263Z,5.6
2018-04-24T10:19:01.101Z,5.8
2018-04-24T10:20:03.541Z,5.7
2018-04-24T10:21:05.979Z,5.6
2018-04-24T10:22:08.412Z,5.6
2018-04-24T10:23:10.860Z,5.6
2018-04-24T10:24:13.303Z,5.5
2018-04-24T10:25:15.734Z,5.7
2018-04-24T10:26:18.178Z,5.6
2018-04-24T10:27:21.076Z,5.6
2018-04-24T10:28:23.447Z,5.6
2018-04-24T10:29:25.891Z,5.6
2018-04-24T10:30:28.664Z,5.6
2018-04-24T10:31:31.692Z,5.6
2018-04-24T10:32:34.543Z,5.6
2018-04-24T10:33:36.974Z,5.6
2018-04-24T10:34:39.485Z,5.7
2018-04-24T10:35:41.915Z,5.7
2018-04-24T10:36:44.349Z,5.5
2018-04-24T10:37:46.802Z,5.6
2018-04-24T10:38:49.232Z,5.7
2018-04-24T10:39:51.663Z,5.6
2018-04-24T10:40:54.107Z,5.6
2018-04-24T10:41:56.546Z,5.6
2018-04-24T10:42:58.988Z,5.6
2018-04-24T10:44:01.431Z,5.6
2018-04-24T10:45:04.165Z,5.8
2018-04-24T10:46:06.609Z,5.6
2018-04-24T10:47:09.662Z,5.7
2018-04-24T10:48:12.059Z,5.6
2018-04-24T10:49:14.502Z,5.8
2018-04-24T10:50:16.934Z,5.6
2018-04-24T10:51:19.380Z,5.6
2018-04-24T10:52:21.817Z,5.7
2018-04-24T10:53:24.551Z,5.6
2018-04-24T10:54:27.289Z,5.8
2018-04-24T10:55:30.306Z,5.6
2018-04-24T10:56:32.732Z,5.7
2018-04-24T10:57:35.474Z,5.6
2018-04-24T10:58:37.902Z,5.7
2018-04-24T10:59:40.343Z,5.5
2018-04-24T11:00:42.916Z,5.5
2018-04-24T11:01:45.281Z,5.6
2018-04-24T11:02:47.720Z,5.5
2018-04-24T11:03:50.459Z,5.6
2018-04-24T11:04:52.895Z,5.6
2018-04-24T11:05:55.648Z,5.6
2018-04-24T11:06:58.082Z,5.6
2018-04-24T11:08:00.808Z,5.6
2018-04-24T11:09:03.245Z,5.7
2018-04-24T11:10:05.993Z,5.6
2018-04-24T11:11:08.420Z,5.7
2018-04-24T11:12:10.874Z,5.7
2018-04-24T11:13:13.307Z,5.6
2018-04-24T11:14:16.703Z,5.7
2018-04-24T11:15:19.140Z,5.7
2018-04-24T11:16:21.577Z,5.7
2018-04-24T11:17:24.301Z,5.8
2018-04-24T11:18:26.742Z,5.6
2018-04-24T11:19:29.452Z,5.6
2018-04-24T11:20:31.894Z,5.6
2018-04-24T11:21:34.351Z,5.6
2018-04-24T11:22:36.770Z,5.8
2018-04-24T11:23:39.208Z,5.8
2018-04-24T11:24:41.657Z,5.7
2018-04-24T11:25:44.492Z,5.6
2018-04-24T11:26:47.244Z,5.6
2018-04-24T11:27:49.659Z,5.7
2018-04-24T11:28:52.089Z,5.7
2018-04-24T11:29:54.537Z,5.6
2018-04-24T11:30:56.984Z,5.6
2018-04-24T11:31:59.410Z,5.8
2018-04-24T11:33:01.859Z,5.6
2018-04-24T11:34:04.331Z,5.6
2018-04-24T11:35:06.738Z,5.7
2018-04-24T11:36:09.176Z,5.7
2018-04-24T11:37:11.610Z,5.7
2018-04-24T11:38:14.049Z,5.7
2018-04-24T11:39:16.729Z,5.7
2018-04-24T11:40:19.500Z,5.6
2018-04-24T11:41:22.338Z,5.8
2018-04-24T11:42:24.774Z,5.6
2018-04-24T11:43:27.949Z,5.6
2018-04-24T11:44:30.435Z,5.6
2018-04-24T11:45:32.752Z,5.6
2018-04-24T11:46:35.480Z,5.6
2018-04-24T11:47:37.890Z,5.8
2018-04-24T11:48:40.441Z,5.6
2018-04-24T11:49:43.128Z,5.6
2018-04-24T11:50:45.488Z,5.6
2018-04-24T11:51:47.898Z,5.7
2018-04-24T11:52:50.536Z,5.7
2018-04-24T11:53:53.164Z,5.6
2018-04-24T11:54:55.611Z,5.6
2018-04-24T11:55:58.064Z,5.6
2018-04-24T11:57:00.514Z,5.7
2018-04-24T11:58:03.161Z,5.7
2018-04-24T11:59:06.192Z,5.7
2018-04-24T12:00:08.567Z,5.7
2018-04-24T12:01:10.972Z,5.6
2018-04-24T12:02:13.446Z,5.5
2018-04-24T12:03:15.856Z,5.5
2018-04-24T12:04:18.268Z,5.7
2018-04-24T12:05:23.197Z,5.7
2018-04-24T12:06:25.775Z,5.8
2018-04-24T12:07:28.935Z,5.6
2018-04-24T12:08:31.322Z,5.6
2018-04-24T12:09:33.710Z,5.7
2018-04-24T12:10:36.137Z,5.6
2018-04-24T12:11:38.589Z,5.6
2018-04-24T12:12:41.329Z,5.7
2018-04-24T12:13:44.109Z,5.6
2018-04-24T12:14:46.560Z,5.7
2018-04-24T12:15:49.671Z,5.6
2018-04-24T12:16:51.993Z,5.6
2018-04-24T12:17:54.500Z,5.6
2018-04-24T12:18:57.023Z,5.6
2018-04-24T12:19:59.456Z,5.6
2018-04-24T12:21:01.898Z,5.7
2018-04-24T12:22:04.359Z,5.7
2018-04-24T12:23:06.805Z,5.6
2018-04-24T12:24:09.259Z,5.6
2018-04-24T12:25:11.727Z,5.7
2018-04-24T12:26:14.164Z,5.6
2018-04-24T12:27:16.868Z,5.6
2018-04-24T12:28:19.305Z,5.6
2018-04-24T12:29:22.026Z,5.7
2018-04-24T12:30:24.462Z,5.7
2018-04-24T12:31:26.910Z,5.6
2018-04-24T12:32:29.393Z,5.7
2018-04-24T12:33:31.847Z,5.7
2018-04-24T12:34:34.972Z,5.6
2018-04-24T12:35:37.813Z,5.6
2018-04-24T12:36:40.265Z,5.6
2018-04-24T12:37:42.696Z,5.6
2018-04-24T12:38:45.954Z,5.7
2018-04-24T12:39:48.699Z,5.7
2018-04-24T12:40:51.734Z,5.5
2018-04-24T12:41:54.184Z,5.5
2018-04-24T12:42:56.627Z,5.7
2018-04-24T12:43:59.055Z,5.6
2018-04-24T12:45:01.500Z,5.6
2018-04-24T12:46:04.242Z,5.6
2018-04-24T12:47:06.685Z,5.5
2018-04-24T12:48:09.129Z,5.6
2018-04-24T12:49:11.569Z,5.6
2018-04-24T12:50:14.014Z,5.7
2018-04-24T12:51:16.451Z,5.8
2018-04-24T12:52:18.893Z,5.6
2018-04-24T12:53:21.617Z,5.7
2018-04-24T12:54:24.057Z,5.8
2018-04-24T12:55:26.485Z,5.8
2018-04-24T12:56:29.262Z,5.6
2018-04-24T12:57:31.979Z,5.7
2018-04-24T12:58:34.805Z,5.7
2018-04-24T12:59:37.243Z,5.8
2018-04-24T13:00:39.995Z,5.7
2018-04-24T13:01:42.718Z,5.6
2018-04-24T13:02:45.160Z,5.7
2018-04-24T13:03:47.652Z,5.5
2018-04-24T13:04:50.033Z,5.6
2018-04-24T13:05:53.043Z,5.8
2018-04-24T13:06:55.486Z,5.7
2018-04-24T13:07:57.928Z,5.6
2018-04-24T13:09:00.665Z,5.6
2018-04-24T13:10:03.094Z,5.8
2018-04-24T13:11:05.543Z,5.9
2018-04-24T13:12:08.272Z,5.6
2018-04-24T13:13:10.999Z,5.7
2018-04-24T13:14:13.439Z,5.6
2018-04-24T13:15:15.881Z,5.7
2018-04-24T13:16:18.615Z,5.6
2018-04-24T13:17:21.064Z,5.7
2018-04-24T13:18:23.501Z,5.8
2018-04-24T13:19:25.934Z,5.6
2018-04-24T13:20:28.375Z,5.7
2018-04-24T13:21:30.815Z,5.7
2018-04-24T13:22:33.237Z,5.6
2018-04-24T13:23:35.963Z,5.6
2018-04-24T13:24:38.405Z,5.6
2018-04-24T13:25:40.852Z,5.6
2018-04-24T13:26:43.621Z,5.7
2018-04-24T13:27:46.054Z,5.7
2018-04-24T13:28:48.493Z,5.6
2018-04-24T13:29:50.942Z,5.6
2018-04-24T13:30:53.388Z,5.6
2018-04-24T13:31:56.524Z,5.5
2018-04-24T13:32:59.268Z,5.7
2018-04-24T13:34:01.704Z,5.7
2018-04-24T13:35:04.473Z,5.5
2018-04-24T13:36:07.309Z,5.7
2018-04-24T13:37:09.800Z,5.8
2018-04-24T13:38:12.469Z,5.7
2018-04-24T13:39:14.909Z,5.6
2018-04-24T13:40:17.341Z,5.6
2018-04-24T13:41:19.780Z,5.6
2018-04-24T13:42:22.222Z,5.8
2018-04-24T13:43:24.648Z,5.7
2018-04-24T13:44:27.092Z,5.7
2018-04-24T13:45:29.545Z,5.6
2018-04-24T13:46:32.375Z,5.7
2018-04-24T13:47:34.818Z,5.6
2018-04-24T13:48:37.261Z,5.8
2018-04-24T13:49:39.992Z,5.7
2018-04-24T13:50:42.411Z,5.6
2018-04-24T13:51:44.862Z,5.6
2018-04-24T13:52:47.302Z,5.7
2018-04-24T13:53:50.407Z,5.8
2018-04-24T13:54:52.852Z,5.6
2018-04-24T13:55:55.289Z,5.6
2018-04-24T13:56:57.721Z,5.6
2018-04-24T13:58:00.171Z,5.8
2018-04-24T13:59:02.607Z,5.6
2018-04-24T14:00:05.043Z,5.6
2018-04-24T14:01:07.475Z,5.6
2018-04-24T14:02:09.912Z,5.6
2018-04-24T14:03:12.347Z,5.6
2018-04-24T14:04:14.789Z,5.6
2018-04-24T14:05:17.221Z,5.5
2018-04-24T14:06:20.047Z,5.6
2018-04-24T14:07:22.773Z,5.5
2018-04-24T14:08:25.602Z,5.6
2018-04-24T14:09:28.428Z,5.5
2018-04-24T14:10:30.876Z,5.6
2018-04-24T14:11:33.310Z,5.6
2018-04-24T14:12:35.748Z,5.6
2018-04-24T14:13:38.579Z,5.6
2018-04-24T14:14:41.401Z,5.6
2018-04-24T14:15:44.138Z,5.7
2018-04-24T14:16:46.866Z,5.6
2018-04-24T14:17:49.290Z,5.6
2018-04-24T14:18:51.729Z,5.5
2018-04-24T14:19:54.168Z,5.5
2018-04-24T14:20:56.607Z,5.6
2018-04-24T14:21:59.423Z,5.6
2018-04-24T14:23:02.193Z,5.7